sensor_id;sensor_type;location;lat;lon;timestamp;P1;durP1;ratioP1;P2;durP2;ratioP2
56949;SDS011;74437;50.080;19.924;2023-12-20T16:38:09;24.58;;;13.85;;
56949;SDS011;74437;50.080;19.924;2023-12-20T16:40:34;26.45;;;13.52;;
56949;SDS011;74437;50.080;19.924;2023-12-20T16:42:59;30.65;;;14.95;;
56949;SDS011;74437;50.080;19.924;2023-12-20T16:45:25;22.73;;;12.13;;
56949;SDS011;74437;50.080;19.924;2023-12-20T16:47:50;20.00;;;10.43;;
56949;SDS011;74437;50.080;19.924;2023-12-20T16:50:16;19.38;;;12.15;;
56949;SDS011;74437;50.080;19.924;2023-12-20T16:52:41;21.90;;;11.77;;
56949;SDS011;74437;50.080;19.924;2023-12-20T16:55:10;19.02;;;11.48;;
56949;SDS011;74437;50.080;19.924;2023-12-20T16:57:36;23.23;;;11.52;;
56949;SDS011;74437;50.080;19.924;2023-12-20T17:00:02;16.80;;;10.43;;
56949;SDS011;74437;50.080;19.924;2023-12-20T17:02:28;15.10;;;9.32;;
56949;SDS011;74437;50.080;19.924;2023-12-20T17:04:53;17.25;;;10.20;;
56949;SDS011;74437;50.080;19.924;2023-12-20T17:07:19;19.60;;;10.00;;
56949;SDS011;74437;50.080;19.924;2023-12-20T17:09:44;17.40;;;10.57;;
56949;SDS011;74437;50.080;19.924;2023-12-20T17:12:13;15.27;;;9.77;;
56949;SDS011;74437;50.080;19.924;2023-12-20T17:14:39;16.33;;;9.68;;
56949;SDS011;74437;50.080;19.924;2023-12-20T17:17:04;15.38;;;9.90;;
56949;SDS011;74437;50.080;19.924;2023-12-20T17:19:30;15.40;;;9.57;;
56949;SDS011;74437;50.080;19.924;2023-12-20T17:21:56;11.88;;;7.57;;
56949;SDS011;74437;50.080;19.924;2023-12-20T17:24:22;18.85;;;9.48;;
56949;SDS011;74437;50.080;19.924;2023-12-20T17:26:47;19.35;;;8.77;;
56949;SDS011;74437;50.080;19.924;2023-12-20T17:29:13;18.45;;;9.77;;
56949;SDS011;74437;50.080;19.924;2023-12-20T17:31:38;15.20;;;9.20;;
56949;SDS011;74437;50.080;19.924;2023-12-20T17:34:06;15.60;;;8.77;;
56949;SDS011;74437;50.080;19.924;2023-12-20T17:36:34;14.50;;;8.63;;
56949;SDS011;74437;50.080;19.924;2023-12-20T17:38:59;12.88;;;8.40;;
56949;SDS011;74437;50.080;19.924;2023-12-20T17:41:24;12.73;;;8.30;;
56949;SDS011;74437;50.080;19.924;2023-12-20T17:43:50;12.95;;;8.07;;
56949;SDS011;74437;50.080;19.924;2023-12-20T17:46:15;13.77;;;8.27;;
56949;SDS011;74437;50.080;19.924;2023-12-20T17:48:41;14.93;;;8.60;;
56949;SDS011;74437;50.080;19.924;2023-12-20T17:51:06;14.18;;;8.13;;
56949;SDS011;74437;50.080;19.924;2023-12-20T17:53:31;13.25;;;8.20;;
56949;SDS011;74437;50.080;19.924;2023-12-20T17:55:56;11.00;;;5.70;;
56949;SDS011;74437;50.080;19.924;2023-12-20T17:58:22;14.93;;;8.07;;
56949;SDS011;74437;50.080;19.924;2023-12-20T18:00:47;13.77;;;7.72;;
56949;SDS011;74437;50.080;19.924;2023-12-20T18:03:12;12.43;;;6.90;;
56949;SDS011;74437;50.080;19.924;2023-12-20T18:05:38;12.20;;;7.00;;
56949;SDS011;74437;50.080;19.924;2023-12-20T18:08:03;13.02;;;6.65;;
56949;SDS011;74437;50.080;19.924;2023-12-20T18:10:29;10.55;;;6.22;;
56949;SDS011;74437;50.080;19.924;2023-12-20T18:12:54;13.82;;;7.65;;
56949;SDS011;74437;50.080;19.924;2023-12-20T18:15:20;12.57;;;6.18;;
56949;SDS011;74437;50.080;19.924;2023-12-20T18:17:46;10.05;;;5.82;;
56949;SDS011;74437;50.080;19.924;2023-12-20T18:20:12;11.50;;;6.57;;
56949;SDS011;74437;50.080;19.924;2023-12-20T18:22:38;10.57;;;5.43;;
56949;SDS011;74437;50.080;19.924;2023-12-20T18:25:04;10.63;;;6.03;;
56949;SDS011;74437;50.080;19.924;2023-12-20T18:27:31;8.73;;;5.50;;
56949;SDS011;74437;50.080;19.924;2023-12-20T18:29:56;11.20;;;5.53;;
56949;SDS011;74437;50.080;19.924;2023-12-20T18:32:23;10.05;;;5.97;;
56949;SDS011;74437;50.080;19.924;2023-12-20T18:34:50;10.88;;;5.78;;
56949;SDS011;74437;50.080;19.924;2023-12-20T18:37:16;10.93;;;5.72;;
56949;SDS011;74437;50.080;19.924;2023-12-20T18:39:41;9.90;;;6.10;;
56949;SDS011;74437;50.080;19.924;2023-12-20T18:42:06;11.20;;;6.40;;
56949;SDS011;74437;50.080;19.924;2023-12-20T18:44:36;11.82;;;5.57;;
56949;SDS011;74437;50.080;19.924;2023-12-20T18:47:01;12.93;;;6.25;;
56949;SDS011;74437;50.080;19.924;2023-12-20T18:49:27;9.00;;;5.32;;
56949;SDS011;74437;50.080;19.924;2023-12-20T18:51:52;8.60;;;4.88;;
56949;SDS011;74437;50.080;19.924;2023-12-20T18:54:18;9.13;;;4.00;;
56949;SDS011;74437;50.080;19.924;2023-12-20T18:56:45;8.88;;;4.97;;
56949;SDS011;74437;50.080;19.924;2023-12-20T18:59:11;7.15;;;4.90;;
56949;SDS011;74437;50.080;19.924;2023-12-20T19:01:38;7.00;;;4.00;;
56949;SDS011;74437;50.080;19.924;2023-12-20T19:04:03;9.98;;;4.63;;
56949;SDS011;74437;50.080;19.924;2023-12-20T19:06:28;7.68;;;4.88;;
56949;SDS011;74437;50.080;19.924;2023-12-20T19:08:54;8.88;;;4.40;;
56949;SDS011;74437;50.080;19.924;2023-12-20T19:11:19;6.20;;;3.28;;
56949;SDS011;74437;50.080;19.924;2023-12-20T19:13:44;8.25;;;4.60;;
56949;SDS011;74437;50.080;19.924;2023-12-20T19:16:11;8.43;;;4.57;;
56949;SDS011;74437;50.080;19.924;2023-12-20T19:18:36;10.48;;;3.70;;
56949;SDS011;74437;50.080;19.924;2023-12-20T19:21:01;9.02;;;4.38;;
56949;SDS011;74437;50.080;19.924;2023-12-20T19:23:32;7.20;;;4.13;;
56949;SDS011;74437;50.080;19.924;2023-12-20T19:25:57;10.52;;;4.53;;
56949;SDS011;74437;50.080;19.924;2023-12-20T19:28:24;6.10;;;4.00;;
56949;SDS011;74437;50.080;19.924;2023-12-20T19:30:49;7.72;;;4.45;;
56949;SDS011;74437;50.080;19.924;2023-12-20T19:33:14;7.35;;;4.13;;
56949;SDS011;74437;50.080;19.924;2023-12-20T19:35:39;6.53;;;3.05;;
56949;SDS011;74437;50.080;19.924;2023-12-20T19:38:05;8.25;;;4.55;;
56949;SDS011;74437;50.080;19.924;2023-12-20T19:40:30;7.25;;;4.30;;
56949;SDS011;74437;50.080;19.924;2023-12-20T19:42:55;6.32;;;3.67;;
56949;SDS011;74437;50.080;19.924;2023-12-20T19:45:22;7.78;;;3.60;;
56949;SDS011;74437;50.080;19.924;2023-12-20T19:47:47;10.23;;;3.70;;
56949;SDS011;74437;50.080;19.924;2023-12-20T19:50:13;7.40;;;3.80;;
56949;SDS011;74437;50.080;19.924;2023-12-20T19:52:38;5.97;;;3.10;;
56949;SDS011;74437;50.080;19.924;2023-12-20T19:55:04;8.13;;;3.22;;
56949;SDS011;74437;50.080;19.924;2023-12-20T19:57:29;5.82;;;3.30;;
56949;SDS011;74437;50.080;19.924;2023-12-20T19:59:54;5.35;;;3.13;;
56949;SDS011;74437;50.080;19.924;2023-12-20T20:02:21;8.50;;;3.95;;
56949;SDS011;74437;50.080;19.924;2023-12-20T20:04:46;7.03;;;3.63;;
56949;SDS011;74437;50.080;19.924;2023-12-20T20:07:11;7.07;;;3.35;;
56949;SDS011;74437;50.080;19.924;2023-12-20T20:09:39;7.40;;;3.20;;
56949;SDS011;74437;50.080;19.924;2023-12-20T20:12:05;6.40;;;3.35;;
56949;SDS011;74437;50.080;19.924;2023-12-20T20:14:31;6.10;;;3.38;;
56949;SDS011;74437;50.080;19.924;2023-12-20T20:16:56;9.68;;;3.75;;
56949;SDS011;74437;50.080;19.924;2023-12-20T20:19:24;9.45;;;3.67;;
56949;SDS011;74437;50.080;19.924;2023-12-20T20:21:50;5.40;;;3.00;;
56949;SDS011;74437;50.080;19.924;2023-12-20T20:24:15;6.25;;;3.60;;
56949;SDS011;74437;50.080;19.924;2023-12-20T20:26:40;6.55;;;3.25;;
56949;SDS011;74437;50.080;19.924;2023-12-20T20:29:06;6.45;;;3.38;;
56949;SDS011;74437;50.080;19.924;2023-12-20T20:31:31;10.52;;;3.20;;
56949;SDS011;74437;50.080;19.924;2023-12-20T20:33:59;6.47;;;3.17;;
56949;SDS011;74437;50.080;19.924;2023-12-20T20:36:24;7.05;;;3.38;;
56949;SDS011;74437;50.080;19.924;2023-12-20T20:38:50;9.13;;;3.55;;
56949;SDS011;74437;50.080;19.924;2023-12-20T20:41:15;6.68;;;3.30;;
56949;SDS011;74437;50.080;19.924;2023-12-20T20:43:40;6.43;;;3.58;;
56949;SDS011;74437;50.080;19.924;2023-12-20T20:46:06;3.10;;;2.05;;
56949;SDS011;74437;50.080;19.924;2023-12-20T20:48:32;7.53;;;3.60;;
56949;SDS011;74437;50.080;19.924;2023-12-20T20:50:57;5.97;;;3.40;;
56949;SDS011;74437;50.080;19.924;2023-12-20T20:53:23;6.72;;;3.78;;
56949;SDS011;74437;50.080;19.924;2023-12-20T20:55:49;8.38;;;3.78;;
56949;SDS011;74437;50.080;19.924;2023-12-20T20:58:14;6.85;;;3.75;;
56949;SDS011;74437;50.080;19.924;2023-12-20T21:00:39;7.47;;;3.58;;
56949;SDS011;74437;50.080;19.924;2023-12-20T21:03:04;9.05;;;3.28;;
56949;SDS011;74437;50.080;19.924;2023-12-20T21:05:30;8.20;;;3.53;;
56949;SDS011;74437;50.080;19.924;2023-12-20T21:07:55;5.40;;;2.95;;
56949;SDS011;74437;50.080;19.924;2023-12-20T21:10:22;13.57;;;4.22;;
56949;SDS011;74437;50.080;19.924;2023-12-20T21:12:47;7.68;;;3.60;;
56949;SDS011;74437;50.080;19.924;2023-12-20T21:15:14;10.70;;;3.33;;
56949;SDS011;74437;50.080;19.924;2023-12-20T21:17:40;6.53;;;3.60;;
56949;SDS011;74437;50.080;19.924;2023-12-20T21:20:10;5.30;;;2.53;;
56949;SDS011;74437;50.080;19.924;2023-12-20T21:22:37;5.22;;;2.97;;
56949;SDS011;74437;50.080;19.924;2023-12-20T21:25:02;6.90;;;3.25;;
56949;SDS011;74437;50.080;19.924;2023-12-20T21:27:28;8.25;;;3.65;;
56949;SDS011;74437;50.080;19.924;2023-12-20T21:29:55;6.25;;;3.00;;
56949;SDS011;74437;50.080;19.924;2023-12-20T21:32:20;7.00;;;3.88;;
56949;SDS011;74437;50.080;19.924;2023-12-20T21:34:46;5.63;;;3.47;;
56949;SDS011;74437;50.080;19.924;2023-12-20T21:37:12;6.45;;;3.55;;
56949;SDS011;74437;50.080;19.924;2023-12-20T21:39:37;5.32;;;2.53;;
56949;SDS011;74437;50.080;19.924;2023-12-20T21:42:03;7.47;;;3.15;;
56949;SDS011;74437;50.080;19.924;2023-12-20T21:44:29;5.57;;;3.10;;
56949;SDS011;74437;50.080;19.924;2023-12-20T21:46:55;7.68;;;3.08;;
56949;SDS011;74437;50.080;19.924;2023-12-20T21:49:20;5.32;;;2.95;;
56949;SDS011;74437;50.080;19.924;2023-12-20T21:51:45;7.43;;;3.30;;
56949;SDS011;74437;50.080;19.924;2023-12-20T21:54:11;4.63;;;2.40;;
56949;SDS011;74437;50.080;19.924;2023-12-20T21:56:36;6.07;;;2.53;;
56949;SDS011;74437;50.080;19.924;2023-12-20T21:59:02;6.72;;;3.33;;
56949;SDS011;74437;50.080;19.924;2023-12-20T22:01:27;7.35;;;3.17;;
56949;SDS011;74437;50.080;19.924;2023-12-20T22:03:52;5.97;;;2.95;;
56949;SDS011;74437;50.080;19.924;2023-12-20T22:06:18;6.00;;;3.30;;
56949;SDS011;74437;50.080;19.924;2023-12-20T22:08:44;5.80;;;3.00;;
56949;SDS011;74437;50.080;19.924;2023-12-20T22:11:09;7.82;;;3.35;;
56949;SDS011;74437;50.080;19.924;2023-12-20T22:13:35;5.72;;;3.10;;
56949;SDS011;74437;50.080;19.924;2023-12-20T22:16:00;8.10;;;3.28;;
56949;SDS011;74437;50.080;19.924;2023-12-20T22:18:25;5.10;;;3.10;;
56949;SDS011;74437;50.080;19.924;2023-12-20T22:20:51;6.80;;;3.30;;
56949;SDS011;74437;50.080;19.924;2023-12-20T22:23:17;5.57;;;3.17;;
56949;SDS011;74437;50.080;19.924;2023-12-20T22:25:43;6.57;;;3.22;;
56949;SDS011;74437;50.080;19.924;2023-12-20T22:28:08;6.95;;;3.25;;
56949;SDS011;74437;50.080;19.924;2023-12-20T22:30:34;6.80;;;3.20;;
56949;SDS011;74437;50.080;19.924;2023-12-20T22:32:59;6.80;;;2.92;;
56949;SDS011;74437;50.080;19.924;2023-12-20T22:35:24;5.55;;;2.78;;
56949;SDS011;74437;50.080;19.924;2023-12-20T22:37:51;5.80;;;3.25;;
56949;SDS011;74437;50.080;19.924;2023-12-20T22:40:17;6.97;;;3.47;;
56949;SDS011;74437;50.080;19.924;2023-12-20T22:42:42;10.45;;;3.28;;
56949;SDS011;74437;50.080;19.924;2023-12-20T22:45:08;7.60;;;3.40;;
56949;SDS011;74437;50.080;19.924;2023-12-20T22:47:36;12.23;;;5.65;;
56949;SDS011;74437;50.080;19.924;2023-12-20T22:50:02;10.07;;;4.05;;
56949;SDS011;74437;50.080;19.924;2023-12-20T22:52:27;11.93;;;4.85;;
56949;SDS011;74437;50.080;19.924;2023-12-20T22:54:53;6.00;;;3.13;;
56949;SDS011;74437;50.080;19.924;2023-12-20T22:57:18;4.72;;;2.22;;
56949;SDS011;74437;50.080;19.924;2023-12-20T22:59:43;7.03;;;3.20;;
56949;SDS011;74437;50.080;19.924;2023-12-20T23:02:09;6.90;;;2.90;;
56949;SDS011;74437;50.080;19.924;2023-12-20T23:04:35;8.25;;;3.33;;
56949;SDS011;74437;50.080;19.924;2023-12-20T23:07:02;6.82;;;3.15;;
56949;SDS011;74437;50.080;19.924;2023-12-20T23:09:28;5.10;;;2.95;;
56949;SDS011;74437;50.080;19.924;2023-12-20T23:11:53;7.53;;;3.08;;
56949;SDS011;74437;50.080;19.924;2023-12-20T23:14:19;4.57;;;2.78;;
56949;SDS011;74437;50.080;19.924;2023-12-20T23:16:44;7.93;;;3.00;;
56949;SDS011;74437;50.080;19.924;2023-12-20T23:19:09;6.75;;;3.20;;
56949;SDS011;74437;50.080;19.924;2023-12-20T23:21:37;5.57;;;2.05;;
56949;SDS011;74437;50.080;19.924;2023-12-20T23:24:02;7.43;;;3.05;;
56949;SDS011;74437;50.080;19.924;2023-12-20T23:26:28;4.20;;;2.65;;
56949;SDS011;74437;50.080;19.924;2023-12-20T23:28:53;6.82;;;3.65;;
56949;SDS011;74437;50.080;19.924;2023-12-20T23:31:22;6.53;;;3.05;;
56949;SDS011;74437;50.080;19.924;2023-12-20T23:33:48;5.82;;;3.08;;
56949;SDS011;74437;50.080;19.924;2023-12-20T23:36:14;6.45;;;2.70;;
56949;SDS011;74437;50.080;19.924;2023-12-20T23:38:39;6.97;;;2.55;;
56949;SDS011;74437;50.080;19.924;2023-12-20T23:41:04;5.63;;;3.10;;
56949;SDS011;74437;50.080;19.924;2023-12-20T23:43:29;5.53;;;2.60;;
56949;SDS011;74437;50.080;19.924;2023-12-20T23:45:55;6.07;;;2.78;;
56949;SDS011;74437;50.080;19.924;2023-12-20T23:48:20;6.13;;;3.10;;
56949;SDS011;74437;50.080;19.924;2023-12-20T23:50:46;6.93;;;3.47;;
56949;SDS011;74437;50.080;19.924;2023-12-20T23:53:11;6.03;;;2.45;;
56949;SDS011;74437;50.080;19.924;2023-12-20T23:55:39;7.97;;;3.05;;
56949;SDS011;74437;50.080;19.924;2023-12-20T23:58:05;4.95;;;3.47;;
